createdAt,value
2023-02-01T00:02:24.612Z,96398.66
2023-02-01T00:07:27.980Z,96401.25
2023-02-01T00:12:30.110Z,96398.69
2023-02-01T00:17:32.112Z,96403.63
2023-02-01T00:22:35.407Z,96384.63
2023-02-01T00:27:37.343Z,96374.38
2023-02-01T00:32:39.303Z,96386.06
2023-02-01T00:37:42.598Z,96399.84
2023-02-01T00:42:44.550Z,96387.75
2023-02-01T00:47:46.585Z,96383.72
2023-02-01T00:52:49.882Z,96387.19
2023-02-01T00:57:51.855Z,96388.53
2023-02-01T01:02:54.292Z,96392.47
2023-02-01T01:07:57.635Z,96368.53
2023-02-01T01:12:59.612Z,96382.72
2023-02-01T01:18:01.595Z,96376.91
2023-02-01T01:23:05.501Z,96387.50
2023-02-01T01:28:08.414Z,96383.84
2023-02-01T01:33:10.633Z,96374.88
2023-02-01T01:38:13.913Z,96386.72
2023-02-01T01:43:18.884Z,96365.22
2023-02-01T01:48:26.494Z,96356.56
2023-02-01T01:53:34.409Z,96356.91
2023-02-01T01:58:36.678Z,96358.13
2023-02-01T02:03:42.227Z,96338.28
2023-02-01T02:08:45.631Z,96338.28
2023-02-01T02:13:51.925Z,96364.56
2023-02-01T02:19:05.921Z,96365.59
2023-02-01T02:24:31.752Z,96456.72
2023-02-01T02:30:03.349Z,96460.59
2023-02-01T02:35:12.590Z,96449.78
2023-02-01T02:40:28.944Z,96458.66
2023-02-01T02:45:57.473Z,96462.28
2023-02-01T02:51:25.693Z,96476.72
2023-02-01T02:56:47.213Z,96468.66
2023-02-01T03:02:09.017Z,96469.09
2023-02-01T03:07:36.114Z,96465.94
2023-02-01T03:12:57.474Z,96466.78
2023-02-01T03:18:02.772Z,96460.94
2023-02-01T03:23:07.557Z,96457.78
2023-02-01T03:28:11.180Z,96447.38
2023-02-01T03:33:24.358Z,96441.13
2023-02-01T03:38:32.121Z,96446.84
2023-02-01T03:43:40.528Z,96426.19
2023-02-01T03:48:43.044Z,96434.50
2023-02-01T03:53:49.747Z,96431.69
2023-02-01T03:58:59.923Z,96434.59
2023-02-01T04:04:01.970Z,96435.56
2023-02-01T04:09:05.378Z,96435.31
2023-02-01T04:14:07.409Z,96447.91
2023-02-01T04:19:09.424Z,96453.72
2023-02-01T04:24:12.814Z,96452.19
2023-02-01T04:29:14.775Z,96453.72
2023-02-01T04:34:16.943Z,96459.66
2023-02-01T04:39:20.273Z,96477.28
2023-02-01T04:44:22.531Z,96476.00
2023-02-01T04:49:26.412Z,96489.72
2023-02-01T04:54:29.732Z,96481.63
2023-02-01T04:59:31.795Z,96473.03
2023-02-01T05:04:33.834Z,96473.47
2023-02-01T05:09:37.198Z,96461.03
2023-02-01T05:14:39.153Z,96475.31
2023-02-01T05:19:41.118Z,96478.38
2023-02-01T05:24:44.466Z,96471.75
2023-02-01T05:29:46.429Z,96467.06
2023-02-01T05:34:48.379Z,96442.47
2023-02-01T05:39:51.820Z,96455.22
2023-02-01T05:44:53.778Z,96470.56
2023-02-01T05:49:55.838Z,96452.75
2023-02-01T05:54:59.197Z,96447.63
2023-02-01T06:00:01.581Z,96443.31
2023-02-01T06:05:03.885Z,96438.53
2023-02-01T06:10:07.976Z,96441.44
2023-02-01T06:15:10.709Z,96425.06
2023-02-01T06:20:14.826Z,96433.94
2023-02-01T06:25:18.701Z,96430.19
2023-02-01T06:30:20.968Z,96429.00
2023-02-01T06:35:23.096Z,96435.13
2023-02-01T06:40:26.375Z,96452.31
2023-02-01T06:45:28.334Z,96437.66
2023-02-01T06:50:30.311Z,96442.69
2023-02-01T06:55:33.820Z,96427.66
2023-02-01T07:00:36.100Z,96415.69
2023-02-01T07:05:38.043Z,96417.81
2023-02-01T07:10:41.351Z,96404.44
2023-02-01T07:15:43.342Z,96408.94
2023-02-01T07:20:50.753Z,96387.41
2023-02-01T07:25:56.656Z,96409.72
2023-02-01T07:31:03.706Z,96409.88
2023-02-01T07:36:09.376Z,96415.06
2023-02-01T07:41:12.631Z,96417.53
2023-02-01T07:46:16.250Z,96416.66
2023-02-01T07:51:18.934Z,96430.81
2023-02-01T07:56:23.738Z,96434.47
2023-02-01T08:01:28.276Z,96425.00
2023-02-01T08:06:32.341Z,96419.97
2023-02-01T08:11:37.562Z,96432.81
2023-02-01T08:16:40.224Z,96420.50
2023-02-01T08:21:42.328Z,96438.59
2023-02-01T08:26:45.724Z,96432.50
2023-02-01T08:31:47.797Z,96410.59
2023-02-01T08:36:49.998Z,96425.91
2023-02-01T08:42:12.137Z,96411.81
2023-02-01T08:47:14.216Z,96414.59
2023-02-01T08:52:16.492Z,96415.06
2023-02-01T08:57:19.896Z,96411.09
2023-02-01T09:02:21.873Z,96412.06
2023-02-01T09:07:24.163Z,96410.09
2023-02-01T09:12:28.074Z,96396.78
2023-02-01T09:17:30.838Z,96404.38
2023-02-01T09:22:33.151Z,96412.47
2023-02-01T09:27:36.535Z,96383.22
2023-02-01T09:32:38.620Z,96394.13
2023-02-01T09:37:40.580Z,96389.44
2023-02-01T09:43:04.610Z,96396.31
2023-02-01T09:48:13.931Z,96406.88
2023-02-01T09:53:21.936Z,96403.06
2023-02-01T09:58:31.154Z,96406.97
2023-02-01T10:03:35.565Z,96394.28
2023-02-01T10:08:57.032Z,96391.44
2023-02-01T10:14:11.392Z,96387.34
2023-02-01T10:19:41.805Z,96384.25
2023-02-01T10:24:47.848Z,96375.59
2023-02-01T10:29:56.304Z,96373.53
2023-02-01T10:35:00.617Z,96365.25
2023-02-01T10:40:12.711Z,96339.22
2023-02-01T10:45:18.882Z,96337.94
2023-02-01T10:50:35.355Z,96342.09
2023-02-01T10:55:41.322Z,96340.44
2023-02-01T11:00:48.156Z,96336.53
2023-02-01T11:05:50.637Z,96324.81
2023-02-01T11:10:59.627Z,96322.63
2023-02-01T11:16:05.400Z,96304.25
2023-02-01T11:21:10.332Z,96314.19
2023-02-01T11:26:15.582Z,96312.72
2023-02-01T11:31:19.634Z,96302.75
2023-02-01T11:36:27.420Z,96305.72
2023-02-01T11:41:29.509Z,96291.53
2023-02-01T11:46:34.569Z,96279.75
2023-02-01T11:51:49.347Z,96288.47
2023-02-01T11:57:06.007Z,96295.06
2023-02-01T12:02:40.915Z,96278.56
2023-02-01T12:07:56.313Z,96286.28
2023-02-01T12:13:09.817Z,96256.81
2023-02-01T12:18:33.387Z,96267.41
2023-02-01T12:23:49.783Z,96262.19
2023-02-01T12:29:18.364Z,96248.41
2023-02-01T12:34:55.944Z,96253.41
2023-02-01T12:40:16.798Z,96252.75
2023-02-01T12:45:26.154Z,96246.69
2023-02-01T12:50:33.960Z,96237.31
2023-02-01T12:55:42.293Z,96244.19
2023-02-01T13:00:48.142Z,96231.66
2023-02-01T13:05:55.152Z,96242.84
2023-02-01T13:11:04.144Z,96235.88
2023-02-01T13:16:14.436Z,96224.97
2023-02-01T13:21:18.687Z,96226.09
2023-02-01T13:26:22.000Z,96235.56
2023-02-01T13:31:58.361Z,96218.00
2023-02-01T13:37:14.064Z,96219.09
2023-02-01T13:42:22.320Z,96208.50
2023-02-01T13:47:29.007Z,96204.78
2023-02-01T13:52:39.827Z,96193.75
2023-02-01T13:57:45.892Z,96195.50
2023-02-01T14:03:09.121Z,96197.28
2023-02-01T14:08:14.142Z,96201.66
2023-02-01T14:13:28.510Z,96204.69
2023-02-01T14:19:02.174Z,96195.50
2023-02-01T14:24:21.418Z,96195.84
2023-02-01T14:29:30.387Z,96207.69
2023-02-01T14:34:44.303Z,96211.59
2023-02-01T14:39:56.677Z,96209.22
2023-02-01T14:45:32.028Z,96219.63
2023-02-01T14:50:41.519Z,96231.97
2023-02-01T14:55:46.985Z,96241.47
2023-02-01T15:00:54.003Z,96246.09
2023-02-01T15:05:58.560Z,96243.78
2023-02-01T15:11:04.642Z,96248.78
2023-02-01T15:16:12.021Z,96252.88
2023-02-01T15:21:28.922Z,96255.19
2023-02-01T15:26:33.388Z,96257.38
2023-02-01T15:31:37.939Z,96255.63
2023-02-01T15:36:45.820Z,96245.00
2023-02-01T15:41:57.804Z,96267.59
2023-02-01T15:47:01.023Z,96254.28
2023-02-01T15:52:12.645Z,96265.00
2023-02-01T15:57:21.640Z,96280.91
2023-02-01T16:02:29.351Z,96280.38
2023-02-01T16:07:34.625Z,96305.25
2023-02-01T16:12:48.754Z,96303.44
2023-02-01T16:17:50.792Z,96317.56
2023-02-01T16:22:54.080Z,96315.69
2023-02-01T16:27:56.262Z,96319.94
2023-02-01T16:32:59.982Z,96330.50
2023-02-01T16:38:03.991Z,96304.78
2023-02-01T16:43:09.397Z,96320.63
2023-02-01T16:48:20.282Z,96310.47
2023-02-01T16:53:24.978Z,96306.34
2023-02-01T16:58:27.911Z,96298.31
2023-02-01T17:03:29.959Z,96294.69
2023-02-01T17:08:36.909Z,96307.41
2023-02-01T17:13:38.997Z,96309.88
2023-02-01T17:18:41.037Z,96305.84
2023-02-01T17:23:44.433Z,96314.56
2023-02-01T17:28:46.431Z,96308.88
2023-02-01T17:33:48.439Z,96312.72
2023-02-01T17:39:04.770Z,96292.97
2023-02-01T17:44:10.607Z,96290.78
2023-02-01T17:49:12.598Z,96294.81
2023-02-01T17:54:17.858Z,96303.22
2023-02-01T17:59:19.844Z,96290.66
2023-02-01T18:04:22.528Z,96279.34
2023-02-01T18:09:25.859Z,96283.56
2023-02-01T18:14:27.885Z,96272.56
2023-02-01T18:19:29.866Z,96284.31
2023-02-01T18:24:34.777Z,96291.63
2023-02-01T18:29:36.763Z,96288.13
2023-02-01T18:34:39.042Z,96286.03
2023-02-01T18:39:42.645Z,96274.78
2023-02-01T18:44:44.862Z,96262.06
2023-02-01T18:49:46.807Z,96250.50
2023-02-01T18:54:59.052Z,96243.09
2023-02-01T19:00:01.991Z,96228.34
2023-02-01T19:05:04.745Z,96235.47
2023-02-01T19:10:13.784Z,96228.16
2023-02-01T19:15:15.980Z,96204.47
2023-02-01T19:20:20.786Z,96203.16
2023-02-01T19:25:27.124Z,96191.72
2023-02-01T19:30:29.501Z,96187.91
2023-02-01T19:35:32.379Z,96189.88
2023-02-01T19:40:38.403Z,96196.63
2023-02-01T19:45:40.449Z,96182.44
2023-02-01T19:50:42.516Z,96178.06
2023-02-01T19:55:46.736Z,96183.22
2023-02-01T20:00:52.108Z,96165.63
2023-02-01T20:05:55.407Z,96171.09
2023-02-01T20:10:58.786Z,96177.66
2023-02-01T20:16:00.811Z,96160.53
2023-02-01T20:21:03.623Z,96120.69
2023-02-01T20:26:11.275Z,96130.81
2023-02-01T20:31:15.412Z,96124.81
2023-02-01T20:36:17.702Z,96121.75
2023-02-01T20:41:21.778Z,96121.28
2023-02-01T20:46:23.930Z,96111.09
2023-02-01T20:51:25.933Z,96129.22
2023-02-01T20:56:29.290Z,96119.22
2023-02-01T21:01:31.365Z,96096.66
2023-02-01T21:06:33.446Z,96118.09
2023-02-01T21:11:36.744Z,96092.50
2023-02-01T21:16:39.515Z,96081.72
2023-02-01T21:21:42.270Z,96081.06
2023-02-01T21:26:45.626Z,96075.94
2023-02-01T21:31:47.594Z,96079.75
2023-02-01T21:36:49.565Z,96047.47
2023-02-01T21:42:11.514Z,96069.38
2023-02-01T21:47:17.237Z,96076.13
2023-02-01T21:52:19.685Z,96089.31
2023-02-01T21:57:22.962Z,96081.06
2023-02-01T22:02:25.195Z,96089.03
2023-02-01T22:07:27.238Z,96093.16
2023-02-01T22:12:30.570Z,96081.19
2023-02-01T22:17:32.554Z,96098.19
2023-02-01T22:22:34.518Z,96085.09
2023-02-01T22:28:32.596Z,96092.94
2023-02-01T22:32:59.741Z,96087.06
2023-02-01T22:38:01.664Z,96082.91
2023-02-01T22:43:05.410Z,96077.69
2023-02-01T22:48:07.421Z,96092.28
2023-02-01T22:53:09.771Z,96097.72
2023-02-01T22:58:13.077Z,96079.84
2023-02-01T23:03:15.170Z,96075.03
2023-02-01T23:08:17.222Z,96072.31
2023-02-01T23:13:20.513Z,96093.47
2023-02-01T23:18:22.562Z,96098.94
2023-02-01T23:23:26.746Z,96091.56
2023-02-01T23:28:30.713Z,96110.97
2023-02-01T23:33:32.674Z,96125.81
2023-02-01T23:38:35.138Z,96122.97
2023-02-01T23:43:57.444Z,96127.28
2023-02-01T23:49:00.624Z,96128.75
2023-02-01T23:54:03.811Z,96127.88
2023-02-01T23:59:11.916Z,96125.34
